Delta Lindsey — WDF5519 — position and weather

sailwx.info

Track history (hours):
 
Tides and Currents Weather Stations Pressure Air Temp Water Temp Dewpoint Dewpoint Depression Visibility Wind Speed Wind Dir Waves Ship Positions

Delta Lindsey

Owner: Baydelta Navigation, Inc., San Francisco, CA. More information available from US FCC via Universal Licensing System and Coast Guard Vessel Documentation Center.

Last reported at 2017-May-25 13:31 UTC. Time now 2017-May-25 14:14 UTC.
Position N 48°08' W 123°27'.

MMSI: 233246442.

Date/timePositionNaut miles runAvg speedWind from/ knotsBaromVisibWave heightAir tempDewpointWater temp
2017-May-25 13:31N 48°08' W 123°27'0 0.0
2017-May-25 13:00N 48°08' W 123°27'1 1.7
2017-May-25 12:31N 48°08' W 123°25'2 4.1
2017-May-25 12:00N 48°09' W 123°23'0 0.1
2017-May-25 11:31N 48°09' W 123°23'3 5.7
2017-May-25 11:01N 48°09' W 123°18'4 6.9
2017-May-25 10:26N 48°11' W 123°13'4 7.6
2017-May-25 09:56N 48°12' W 123°08'25 8.2
2017-May-25 06:56N 48°00' W 122°36'4 9.9
2017-May-25 06:30N 47°57' W 122°32'5 9.9
2017-May-25 06:01N 47°53' W 122°28'510.3
2017-May-25 05:31N 47°48' W 122°26'510.1
2017-May-25 05:01N 47°43' W 122°26'5 9.6
2017-May-25 04:31N 47°38' W 122°25'2 3.3
2017-May-25 03:59N 47°38' W 122°23'0 0.0
2017-May-25 03:29N 47°38' W 122°23'0 0.0
2017-May-25 02:59N 47°38' W 122°23'0 0.0
2017-May-25 02:30N 47°38' W 122°23'1 2.6
2017-May-25 02:00N 47°37' W 122°22'2 3.7
2017-May-25 01:30N 47°35' W 122°21'0 0.5
2017-May-25 01:00N 47°35' W 122°21'1 1.9
2017-May-25 00:30N 47°36' W 122°21'0 0.6
2017-May-25 00:01N 47°36' W 122°21'0 0.1
2017-May-24 23:30N 47°36' W 122°21'3 5.6
2017-May-24 23:00N 47°38' W 122°23'0 0.0
2017-May-24 22:30N 47°38' W 122°23'0 0.2
2017-May-24 22:00N 47°38' W 122°23'4 8.0
2017-May-24 21:30N 47°39' W 122°28'510.9
2017-May-24 21:00N 47°45' W 122°27'510.9
2017-May-24 20:30N 47°50' W 122°28'510.3
2017-May-24 20:00N 47°55' W 122°31'710.8
2017-May-24 19:21N 48°01' W 122°38'1111.1
2017-May-24 18:24N 48°10' W 122°46'12 9.8
2017-May-24 17:11N 48°22' W 122°46'312.6
2017-May-24 16:57N 48°24' W 122°45'612.8
2017-May-24 16:31N 48°30' W 122°43'713.4
2017-May-24 16:00N 48°36' W 122°39'510.2
2017-May-24 15:30N 48°40' W 122°33'5 9.9
2017-May-24 15:00N 48°44' W 122°30'1 1.0
2017-May-24 14:30N 48°45' W 122°30'0 0.0
2017-May-24 13:24N 48°45' W 122°30'0 0.0
2017-May-24 13:00N 48°45' W 122°30'0 0.0
2017-May-24 12:21N 48°45' W 122°30'0 0.0
2017-May-24 11:45N 48°45' W 122°30'0 0.0
2017-May-24 11:30N 48°45' W 122°30'0 0.0
2017-May-24 11:00N 48°45' W 122°30'0 0.0
2017-May-24 10:30N 48°45' W 122°30'0 0.0
2017-May-24 10:00N 48°45' W 122°30'0 0.0
2017-May-24 09:24N 48°45' W 122°30'0 0.0
2017-May-24 08:54N 48°45' W 122°30'0 0.0
2017-May-24 08:30N 48°45' W 122°30'2 3.4
2017-May-24 07:56N 48°43' W 122°32'510.3
2017-May-24 07:30N 48°39' W 122°34'5 9.4
2017-May-24 07:00N 48°40' W 122°41'11 3.9
2017-May-24 04:19N 48°50' W 122°45'1 1.2
2017-May-24 03:11N 48°49' W 122°46'4 6.1
2017-May-24 02:27N 48°45' W 122°44'4 9.4
2017-May-24 02:00N 48°41' W 122°42'5 9.6
2017-May-24 01:30N 48°38' W 122°36'2 3.3
2017-May-24 01:00N 48°37' W 122°34'2 3.3
2017-May-24 00:30N 48°37' W 122°36'4 8.3
2017-May-23 23:58N 48°34' W 122°40'511.5
2017-May-23 23:30N 48°29' W 122°44'612.8
2017-May-23 23:00N 48°23' W 122°49'713.7
2017-May-23 22:29N 48°19' W 122°58'611.5
2017-May-23 22:00N 48°16' W 123°05'2 3.5
2017-May-23 21:30N 48°15' W 123°06'3 6.0
2017-May-23 20:58N 48°14' W 123°02'3 6.5
2017-May-23 20:29N 48°13' W 122°57'4 7.8
2017-May-23 20:00N 48°12' W 122°52'17 8.6
2017-May-23 18:04N 47°60' W 122°36'110.2
2017-May-23 17:57N 47°59' W 122°35'410.2
2017-May-23 17:30N 47°56' W 122°30'510.2
2017-May-23 17:00N 47°51' W 122°28'510.0
2017-May-23 16:30N 47°46' W 122°26'5 9.9
2017-May-23 16:00N 47°41' W 122°27'5 9.0
2017-May-23 15:30N 47°37' W 122°23'1 1.1
2017-May-23 15:00N 47°38' W 122°23'0 0.0
2017-May-23 14:30N 47°38' W 122°23'0 0.0
2017-May-23 13:30N 47°38' W 122°23'3 6.5
2017-May-23 13:00N 47°35' W 122°21'0 0.1
2017-May-23 12:30N 47°35' W 122°21'1 1.4
2017-May-23 12:00N 47°36' W 122°21'1 2.4
2017-May-23 11:30N 47°36' W 122°22'1 2.5
2017-May-23 11:01N 47°36' W 122°21'1 1.3
2017-May-23 10:27N 47°35' W 122°21'0 0.0
2017-May-23 10:00N 47°35' W 122°21'0 0.0
2017-May-23 09:30N 47°35' W 122°21'1 1.6
2017-May-23 09:00N 47°36' W 122°21'0 0.0
2017-May-23 08:30N 47°36' W 122°21'1 2.6
2017-May-23 08:00N 47°36' W 122°22'1 2.2
2017-May-23 07:30N 47°37' W 122°23'1 1.7
2017-May-23 07:00N 47°38' W 122°23'0 0.0
2017-May-23 06:29N 47°38' W 122°23'0 0.0
2017-May-23 06:00N 47°38' W 122°23'0 0.0
2017-May-23 05:30N 47°38' W 122°23'0 0.0
2017-May-23 05:00N 47°38' W 122°23'0 0.0
2017-May-23 04:30N 47°38' W 122°23'0 0.0
2017-May-23 03:59N 47°38' W 122°23'0 0.0
2017-May-23 03:30N 47°38' W 122°23'0 0.0
2017-May-23 03:01N 47°38' W 122°23'3 5.6
2017-May-23 02:31N 47°35' W 122°21'0 0.6
2017-May-23 02:01N 47°35' W 122°21'1 1.6
2017-May-23 01:31N 47°35' W 122°22'0 0.0
2017-May-23 01:01N 47°35' W 122°22'1 2.4
2017-May-23 00:30N 47°36' W 122°21'3 5.1
2017-May-23 00:01N 47°38' W 122°23'0 0.0
2017-May-22 23:30N 47°38' W 122°23'0 0.0
2017-May-22 23:00N 47°38' W 122°23'0 0.0
2017-May-22 22:30N 47°38' W 122°23'0 0.0
2017-May-22 22:00N 47°38' W 122°23'0 0.0
2017-May-22 21:30N 47°38' W 122°23'0 0.0
2017-May-22 21:00N 47°38' W 122°23'0 0.0
2017-May-22 20:29N 47°38' W 122°23'0 0.0
2017-May-22 19:59N 47°38' W 122°23'0 0.0
2017-May-22 19:30N 47°38' W 122°23'0 0.0
2017-May-22 18:59N 47°38' W 122°23'0 0.0
2017-May-22 18:30N 47°38' W 122°23'0 0.0
2017-May-22 18:00N 47°38' W 122°23'0 0.0
2017-May-22 17:29N 47°38' W 122°23'0 0.0
2017-May-22 16:59N 47°38' W 122°23'0 0.0
2017-May-22 16:30N 47°38' W 122°23'0 0.0
2017-May-22 16:00N 47°38' W 122°23'0 0.0
2017-May-22 15:30N 47°38' W 122°23'0 0.0
2017-May-22 15:00N 47°38' W 122°23'0 0.0
2017-May-22 13:59N 47°38' W 122°23'0 0.0
2017-May-22 13:29N 47°38' W 122°23'0 0.0
2017-May-22 13:00N 47°38' W 122°23'0 0.0
2017-May-22 12:30N 47°38' W 122°23'0 0.0
2017-May-22 12:00N 47°38' W 122°23'0 0.0
2017-May-22 11:29N 47°38' W 122°23'0 0.0
2017-May-22 11:00N 47°38' W 122°23'0 0.0
2017-May-22 10:30N 47°38' W 122°23'0 0.0
2017-May-22 09:59N 47°38' W 122°23'0 0.0
2017-May-22 09:29N 47°38' W 122°23'0 0.0
2017-May-22 09:00N 47°38' W 122°23'0 0.0
2017-May-22 08:27N 47°38' W 122°23'0 0.0
2017-May-22 07:59N 47°38' W 122°23'0 0.0
2017-May-22 07:29N 47°38' W 122°23'0 0.0
2017-May-22 07:00N 47°38' W 122°23'0 0.0
2017-May-22 06:29N 47°38' W 122°23'0 0.0
2017-May-22 05:59N 47°38' W 122°23'0 0.0
2017-May-22 05:30N 47°38' W 122°23'0 0.0
2017-May-22 04:59N 47°38' W 122°23'0 0.0
2017-May-22 04:30N 47°38' W 122°23'0 0.0
2017-May-22 03:59N 47°38' W 122°23'0 0.0
2017-May-22 03:30N 47°38' W 122°23'0 0.0
2017-May-22 03:00N 47°38' W 122°23'0 0.0
2017-May-22 02:30N 47°38' W 122°23'0 0.0
2017-May-22 01:59N 47°38' W 122°23'0 0.0
2017-May-22 01:30N 47°38' W 122°23'0 0.0
2017-May-22 00:59N 47°38' W 122°23'0 0.0
2017-May-22 00:29N 47°38' W 122°23'0 0.0
2017-May-22 00:00N 47°38' W 122°23'0 0.0
2017-May-21 23:30N 47°38' W 122°23'0 0.0
2017-May-21 23:00N 47°38' W 122°23'0 0.0
2017-May-21 22:30N 47°38' W 122°23'0 0.0
2017-May-21 21:59N 47°38' W 122°23'0 0.0
2017-May-21 21:30N 47°38' W 122°23'0 0.0
2017-May-21 21:00N 47°38' W 122°23'0 0.0
2017-May-21 20:29N 47°38' W 122°23'0 0.0
2017-May-21 19:59N 47°38' W 122°23'0 0.0
2017-May-21 19:30N 47°38' W 122°23'0 0.0
2017-May-21 18:59N 47°38' W 122°23'0 0.0
2017-May-21 18:30N 47°38' W 122°23'0 0.0
2017-May-21 17:59N 47°38' W 122°23'0 0.0
2017-May-21 17:29N 47°38' W 122°23'0 0.0
2017-May-21 16:59N 47°38' W 122°23'0 0.0
2017-May-21 16:29N 47°38' W 122°23'0 0.0
2017-May-21 15:59N 47°38' W 122°23'0 0.0
2017-May-21 15:30N 47°38' W 122°23'0 0.0
2017-May-21 15:00N 47°38' W 122°23'0 0.0
2017-May-21 14:29N 47°38' W 122°23'0 0.0
2017-May-21 13:30N 47°38' W 122°23'1 1.3
2017-May-21 13:00N 47°37' W 122°22'3 5.2
2017-May-21 12:31N 47°35' W 122°21'0 0.4
2017-May-21 12:00N 47°35' W 122°21'2 3.7
2017-May-21 11:30N 47°37' W 122°22'1 2.3
2017-May-21 11:00N 47°38' W 122°23'0 0.0
2017-May-21 10:29N 47°38' W 122°23'0 0.0
2017-May-21 09:59N 47°38' W 122°23'0 0.0
2017-May-21 09:29N 47°38' W 122°23'0 0.0
2017-May-21 08:59N 47°38' W 122°23'0 0.0
2017-May-21 08:29N 47°38' W 122°23'0 0.0
2017-May-21 07:59N 47°38' W 122°23'0 0.0
2017-May-21 07:29N 47°38' W 122°23'0 0.0
2017-May-21 06:59N 47°38' W 122°23'0 0.0
2017-May-21 06:26N 47°38' W 122°23'0 0.0
2017-May-21 05:59N 47°38' W 122°23'0 0.0
2017-May-21 05:29N 47°38' W 122°23'0 0.0
2017-May-21 04:59N 47°38' W 122°23'0 0.0
2017-May-21 04:29N 47°38' W 122°23'0 0.0
2017-May-21 03:56N 47°38' W 122°23'0 0.0
2017-May-21 03:29N 47°38' W 122°23'0 0.0
2017-May-21 03:01N 47°38' W 122°23'3 5.0
2017-May-21 02:30N 47°36' W 122°21'0 0.5
2017-May-21 02:01N 47°36' W 122°21'0 0.0
2017-May-21 01:31N 47°36' W 122°21'3 4.9
2017-May-21 00:58N 47°38' W 122°23'0 0.0
2017-May-21 00:28N 47°38' W 122°23'0 0.0
2017-May-20 23:58N 47°38' W 122°23'0 0.0
2017-May-20 23:28N 47°38' W 122°23'0 0.0
2017-May-20 22:58N 47°38' W 122°23'0 0.0
2017-May-20 22:28N 47°38' W 122°23'0 0.0
2017-May-20 21:58N 47°38' W 122°23'0 0.0
2017-May-20 21:28N 47°38' W 122°23'0 0.0
2017-May-20 20:58N 47°38' W 122°23'0 0.0
2017-May-20 20:28N 47°38' W 122°23'0 0.0
2017-May-20 19:58N 47°38' W 122°23'0 0.0
2017-May-20 19:28N 47°38' W 122°23'0 0.0
2017-May-20 18:58N 47°38' W 122°23'0 0.0
2017-May-20 18:28N 47°38' W 122°23'0 0.0
2017-May-20 17:58N 47°38' W 122°23'0 0.0
2017-May-20 17:28N 47°38' W 122°23'0 0.0
2017-May-20 16:58N 47°38' W 122°23'0 0.0
2017-May-20 16:28N 47°38' W 122°23'0 0.0
2017-May-20 15:55N 47°38' W 122°23'0 0.2
2017-May-20 15:31N 47°38' W 122°23'5 9.2
2017-May-20 15:01N 47°34' W 122°26'510.4
2017-May-20 14:31N 47°29' W 122°24'9 8.8
2017-May-20 13:31N 47°20' W 122°26'3 6.6
2017-May-20 13:00N 47°17' W 122°25'0 0.0
2017-May-20 11:35N 47°17' W 122°25'111.7
2017-May-20 11:30N 47°17' W 122°26'510.5
2017-May-20 11:00N 47°22' W 122°23'612.1
2017-May-20 10:31N 47°28' W 122°24'612.5
2017-May-20 10:01N 47°34' W 122°25'4 7.9
2017-May-20 09:31N 47°37' W 122°22'0 0.0
2017-May-20 09:00N 47°37' W 122°22'1 1.7
2017-May-20 08:31N 47°37' W 122°23'1 1.6
2017-May-20 08:01N 47°37' W 122°22'0 0.3
2017-May-20 07:31N 47°37' W 122°22'1 1.3
2017-May-20 07:01N 47°38' W 122°23'0 0.0
2017-May-20 06:30N 47°38' W 122°23'0 0.0
2017-May-20 06:00N 47°38' W 122°23'0 0.0
2017-May-20 05:30N 47°38' W 122°23'0 0.0
2017-May-20 05:00N 47°38' W 122°23'0 0.0
2017-May-20 04:30N 47°38' W 122°23'0 0.0
2017-May-20 04:00N 47°38' W 122°23'0 0.0
2017-May-20 03:30N 47°38' W 122°23'3 5.4
2017-May-20 03:00N 47°35' W 122°22'1 1.0
2017-May-20 02:31N 47°35' W 122°22'0 0.3
2017-May-20 02:00N 47°35' W 122°22'0 0.0
2017-May-20 01:30N 47°35' W 122°22'0 0.3
2017-May-20 01:00N 47°35' W 122°22'0 0.3
2017-May-20 00:30N 47°35' W 122°22'0 0.0
2017-May-20 00:00N 47°35' W 122°22'0 0.0
2017-May-19 23:30N 47°35' W 122°22'0 0.0
2017-May-19 23:01N 47°35' W 122°22'0 0.0
2017-May-19 22:31N 47°35' W 122°22'0 0.0
2017-May-19 22:01N 47°35' W 122°22'0 0.0
2017-May-19 21:31N 47°35' W 122°22'1 1.6
2017-May-19 21:01N 47°35' W 122°21'0 1.0
2017-May-19 20:31N 47°36' W 122°21'2 3.3
2017-May-19 20:00N 47°37' W 122°22'1 1.8
2017-May-19 19:31N 47°38' W 122°23'0 0.5
2017-May-19 18:59N 47°38' W 122°23'0 0.0
2017-May-19 18:29N 47°38' W 122°23'0 0.0
2017-May-19 17:59N 47°38' W 122°23'0 0.0
2017-May-19 17:29N 47°38' W 122°23'0 0.0
2017-May-19 16:59N 47°38' W 122°23'0 0.0
2017-May-19 16:29N 47°38' W 122°23'0 0.0
2017-May-19 15:59N 47°38' W 122°23'0 0.0
2017-May-19 15:29N 47°38' W 122°23'0 0.0
2017-May-19 14:59N 47°38' W 122°23'0 0.0
2017-May-19 14:00N 47°38' W 122°23'0 0.0
2017-May-19 13:31N 47°38' W 122°23'0 0.0
2017-May-19 13:01N 47°38' W 122°23'1 1.3
2017-May-19 12:31N 47°37' W 122°22'3 5.4
2017-May-19 12:01N 47°35' W 122°21'0 0.3
2017-May-19 11:31N 47°35' W 122°21'0 0.9
2017-May-19 11:01N 47°35' W 122°21'3 6.1
2017-May-19 10:31N 47°38' W 122°23'0 0.0
2017-May-19 10:00N 47°38' W 122°23'0 0.0
2017-May-19 09:30N 47°38' W 122°23'0 0.0
2017-May-19 09:00N 47°38' W 122°23'0 0.0
2017-May-19 08:30N 47°38' W 122°23'0 0.0
2017-May-19 08:00N 47°38' W 122°23'0 0.0
2017-May-19 07:30N 47°38' W 122°23'0 0.0
2017-May-19 07:00N 47°38' W 122°23'0 0.0
2017-May-19 06:30N 47°38' W 122°23'0 0.0
2017-May-19 06:00N 47°38' W 122°23'0 0.0
2017-May-19 05:30N 47°38' W 122°23'0 0.0
2017-May-19 05:00N 47°38' W 122°23'0 0.0
2017-May-19 04:30N 47°38' W 122°23'0 0.0
2017-May-19 04:00N 47°38' W 122°23'0 0.0
2017-May-19 03:30N 47°38' W 122°23'0 0.0
2017-May-19 03:00N 47°38' W 122°23'0 0.0
2017-May-19 02:30N 47°38' W 122°23'0 0.0
2017-May-19 02:00N 47°38' W 122°23'0 0.0
2017-May-19 01:30N 47°38' W 122°23'3 6.2
2017-May-19 01:00N 47°35' W 122°21'0 0.5
2017-May-19 00:31N 47°35' W 122°21'3 6.2
2017-May-18 23:58N 47°38' W 122°23'0 0.0
2017-May-18 23:28N 47°38' W 122°23'0 0.0
2017-May-18 22:58N 47°38' W 122°23'0 0.0
2017-May-18 22:28N 47°38' W 122°23'0 0.0
2017-May-18 21:58N 47°38' W 122°23'0 0.0
2017-May-18 21:28N 47°38' W 122°23'0 0.0
2017-May-18 20:58N 47°38' W 122°23'0 0.0
2017-May-18 20:28N 47°38' W 122°23'0 0.0
2017-May-18 19:58N 47°38' W 122°23'0 0.0
2017-May-18 19:28N 47°38' W 122°23'3 6.1
2017-May-18 19:00N 47°36' W 122°21'0 0.1
2017-May-18 18:30N 47°36' W 122°21'1 2.3
2017-May-18 18:00N 47°36' W 122°22'3 5.4
2017-May-18 17:30N 47°37' W 122°26'4 8.0
2017-May-18 17:00N 47°41' W 122°28'5 9.5
2017-May-18 16:30N 47°46' W 122°27'5 9.6
2017-May-18 16:01N 47°50' W 122°28'5 9.6
2017-May-18 15:30N 47°55' W 122°30'5 9.3
2017-May-18 14:59N 47°58' W 122°36'11 9.0
2017-May-18 13:48N 48°08' W 122°42'511.4
2017-May-18 13:20N 48°11' W 122°49'412.6
2017-May-18 13:00N 48°12' W 122°55'510.2
2017-May-18 12:30N 48°12' W 123°03'510.1
2017-May-18 12:00N 48°12' W 123°10'5 9.1
2017-May-18 11:30N 48°10' W 123°16'4 8.7
2017-May-18 11:00N 48°08' W 123°22'1 2.6
2017-May-18 10:31N 48°08' W 123°24'0 0.3
2017-May-18 10:00N 48°08' W 123°24'0 0.1
2017-May-18 09:30N 48°08' W 123°24'0 0.2
2017-May-18 09:00N 48°08' W 123°24'0 0.0
2017-May-18 08:30N 48°08' W 123°24'0 0.9
2017-May-18 08:00N 48°08' W 123°24'611.4
2017-May-18 07:31N 48°10' W 123°16'610.8
2017-May-18 07:00N 48°12' W 123°08'510.4
2017-May-18 06:30N 48°12' W 123°01'611.1
2017-May-18 06:01N 48°12' W 122°52'14 9.3
2017-May-18 04:27N 48°01' W 122°37'4 9.7
2017-May-18 04:00N 47°58' W 122°34'510.1
2017-May-18 03:31N 47°54' W 122°29'612.6
2017-May-18 03:01N 47°48' W 122°26'612.6
2017-May-18 02:31N 47°42' W 122°27'611.5
2017-May-18 02:01N 47°37' W 122°23'2 4.3
2017-May-18 01:31N 47°35' W 122°21'0 0.7
2017-May-18 01:01N 47°35' W 122°21'0 0.1
2017-May-18 00:31N 47°35' W 122°21'1 2.1
2017-May-18 00:01N 47°36' W 122°21'0 0.5
2017-May-17 23:31N 47°36' W 122°21'0 0.1
2017-May-17 23:00N 47°36' W 122°21'2 4.9
2017-May-17 22:31N 47°38' W 122°23'0 0.3
2017-May-17 22:00N 47°38' W 122°23'0 0.0
2017-May-17 21:31N 47°38' W 122°23'0 0.0
2017-May-17 21:01N 47°38' W 122°23'0 0.0
2017-May-17 20:31N 47°38' W 122°23'0 0.0
2017-May-17 20:01N 47°38' W 122°23'1 1.4
2017-May-17 19:30N 47°37' W 122°23'0 0.2
2017-May-17 19:01N 47°37' W 122°23'1 1.5
2017-May-17 18:30N 47°38' W 122°23'0 0.0
2017-May-17 18:00N 47°38' W 122°23'0 0.0
2017-May-17 17:30N 47°38' W 122°23'0 0.0
2017-May-17 17:00N 47°38' W 122°23'0 0.0
2017-May-17 16:30N 47°38' W 122°23'0 0.0
2017-May-17 16:00N 47°38' W 122°23'0 0.0
2017-May-17 15:30N 47°38' W 122°23'0 0.0
2017-May-17 15:00N 47°38' W 122°23'2 2.2
2017-May-17 14:01N 47°36' W 122°21'1 2.2
2017-May-17 13:31N 47°35' W 122°21'1 2.9
2017-May-17 13:00N 47°36' W 122°21'1 2.6
2017-May-17 12:30N 47°37' W 122°22'0 0.2
2017-May-17 12:01N 47°37' W 122°22'2 4.9
2017-May-17 11:30N 47°35' W 122°21'0 0.3
2017-May-17 11:01N 47°35' W 122°21'1 1.8
2017-May-17 10:30N 47°36' W 122°21'2 3.2
2017-May-17 10:01N 47°37' W 122°23'1 1.5
2017-May-17 09:31N 47°37' W 122°22'0 0.2
2017-May-17 09:00N 47°37' W 122°22'0 0.1
2017-May-17 08:31N 47°37' W 122°22'1 2.1
2017-May-17 08:01N 47°36' W 122°22'2 3.6
2017-May-17 07:30N 47°38' W 122°24'511.1
2017-May-17 07:01N 47°43' W 122°27'612.2
2017-May-17 06:31N 47°49' W 122°28'611.7
2017-May-17 06:00N 47°54' W 122°30'1812.0
2017-May-17 04:29N 48°10' W 122°45'613.0
2017-May-17 04:00N 48°11' W 122°54'612.8
2017-May-17 03:30N 48°12' W 123°04'713.9
2017-May-17 03:00N 48°10' W 123°14'613.1
2017-May-17 02:30N 48°08' W 123°23'2 4.2
2017-May-17 02:00N 48°08' W 123°26'0 0.1
2017-May-17 01:30N 48°08' W 123°26'0 0.1
2017-May-17 01:00N 48°08' W 123°27'0 0.8
2017-May-17 00:30N 48°08' W 123°26'1 2.8
2017-May-17 00:00N 48°08' W 123°24'4 8.4
2017-May-16 23:30N 48°11' W 123°19'5 9.3
2017-May-16 23:00N 48°14' W 123°14'5 9.6
2017-May-16 22:30N 48°16' W 123°08'5 9.3
2017-May-16 21:59N 48°19' W 123°02'5 9.6
2017-May-16 21:25N 48°22' W 122°55'410.2
2017-May-16 21:00N 48°24' W 122°49'511.0
2017-May-16 20:30N 48°28' W 122°44'510.8
2017-May-16 20:00N 48°31' W 122°38'1 1.2
2017-May-16 19:28N 48°31' W 122°37'0 0.0
2017-May-16 18:58N 48°31' W 122°37'0 0.0
2017-May-16 18:22N 48°31' W 122°37'0 0.0
2017-May-16 17:58N 48°31' W 122°37'0 0.0
2017-May-16 17:28N 48°31' W 122°37'0 0.0
2017-May-16 16:58N 48°31' W 122°37'0 0.0
2017-May-16 16:28N 48°31' W 122°37'0 0.0
2017-May-16 10:21N 48°31' W 122°37'1 1.0
2017-May-16 08:58N 48°31' W 122°35'1 0.3
2017-May-16 04:12N 48°31' W 122°37'0 0.8
2017-May-16 04:01N 48°31' W 122°36'0 0.0
2017-May-16 03:30N 48°31' W 122°36'0 0.0
2017-May-16 03:00N 48°31' W 122°36'0 0.1
2017-May-16 01:04N 48°31' W 122°36'110.0
2017-May-16 01:00N 48°31' W 122°37'1 0.3
2017-May-15 21:30N 48°31' W 122°36'2 3.5
2017-May-15 21:00N 48°31' W 122°38'1 1.7
2017-May-15 20:30N 48°31' W 122°39'2 4.2
2017-May-15 20:00N 48°31' W 122°36'1 0.2
2017-May-15 17:23N 48°31' W 122°36'0 0.2
2017-May-15 15:04N 48°31' W 122°36'  
Track history (hours):
 
Tides and Currents Weather Stations Pressure Air Temp Water Temp Dewpoint Dewpoint Depression Visibility Wind Speed Wind Dir Waves Ship Positions

Delta Lindsey

Owner: Baydelta Navigation, Inc., San Francisco, CA. More information available from US FCC via Universal Licensing System and Coast Guard Vessel Documentation Center.

Last reported at 2017-May-25 13:31 UTC. Time now 2017-May-25 14:14 UTC.
Position N 48°08' W 123°27'.

MMSI: 233246442.

Date/timePositionNaut miles runAvg speedWind from/ knotsBaromVisibWave heightAir tempDewpointWater temp
2017-May-25 13:31N 48°08' W 123°27'0 0.0
2017-May-25 13:00N 48°08' W 123°27'1 1.7
2017-May-25 12:31N 48°08' W 123°25'2 4.1
2017-May-25 12:00N 48°09' W 123°23'0 0.1
2017-May-25 11:31N 48°09' W 123°23'3 5.7
2017-May-25 11:01N 48°09' W 123°18'4 6.9
2017-May-25 10:26N 48°11' W 123°13'4 7.6
2017-May-25 09:56N 48°12' W 123°08'25 8.2
2017-May-25 06:56N 48°00' W 122°36'4 9.9
2017-May-25 06:30N 47°57' W 122°32'5 9.9
2017-May-25 06:01N 47°53' W 122°28'510.3
2017-May-25 05:31N 47°48' W 122°26'510.1
2017-May-25 05:01N 47°43' W 122°26'5 9.6
2017-May-25 04:31N 47°38' W 122°25'2 3.3
2017-May-25 03:59N 47°38' W 122°23'0 0.0
2017-May-25 03:29N 47°38' W 122°23'0 0.0
2017-May-25 02:59N 47°38' W 122°23'0 0.0
2017-May-25 02:30N 47°38' W 122°23'1 2.6
2017-May-25 02:00N 47°37' W 122°22'2 3.7
2017-May-25 01:30N 47°35' W 122°21'0 0.5
2017-May-25 01:00N 47°35' W 122°21'1 1.9
2017-May-25 00:30N 47°36' W 122°21'0 0.6
2017-May-25 00:01N 47°36' W 122°21'0 0.1
2017-May-24 23:30N 47°36' W 122°21'3 5.6
2017-May-24 23:00N 47°38' W 122°23'0 0.0
2017-May-24 22:30N 47°38' W 122°23'0 0.2
2017-May-24 22:00N 47°38' W 122°23'4 8.0
2017-May-24 21:30N 47°39' W 122°28'510.9
2017-May-24 21:00N 47°45' W 122°27'510.9
2017-May-24 20:30N 47°50' W 122°28'510.3
2017-May-24 20:00N 47°55' W 122°31'710.8
2017-May-24 19:21N 48°01' W 122°38'1111.1
2017-May-24 18:24N 48°10' W 122°46'12 9.8
2017-May-24 17:11N 48°22' W 122°46'312.6
2017-May-24 16:57N 48°24' W 122°45'612.8
2017-May-24 16:31N 48°30' W 122°43'713.4
2017-May-24 16:00N 48°36' W 122°39'510.2
2017-May-24 15:30N 48°40' W 122°33'5 9.9
2017-May-24 15:00N 48°44' W 122°30'1 1.0
2017-May-24 14:30N 48°45' W 122°30'0 0.0
2017-May-24 13:24N 48°45' W 122°30'0 0.0
2017-May-24 13:00N 48°45' W 122°30'0 0.0
2017-May-24 12:21N 48°45' W 122°30'0 0.0
2017-May-24 11:45N 48°45' W 122°30'0 0.0
2017-May-24 11:30N 48°45' W 122°30'0 0.0
2017-May-24 11:00N 48°45' W 122°30'0 0.0
2017-May-24 10:30N 48°45' W 122°30'0 0.0
2017-May-24 10:00N 48°45' W 122°30'0 0.0
2017-May-24 09:24N 48°45' W 122°30'0 0.0
2017-May-24 08:54N 48°45' W 122°30'0 0.0
2017-May-24 08:30N 48°45' W 122°30'2 3.4
2017-May-24 07:56N 48°43' W 122°32'510.3
2017-May-24 07:30N 48°39' W 122°34'5 9.4
2017-May-24 07:00N 48°40' W 122°41'11 3.9
2017-May-24 04:19N 48°50' W 122°45'1 1.2
2017-May-24 03:11N 48°49' W 122°46'4 6.1
2017-May-24 02:27N 48°45' W 122°44'4 9.4
2017-May-24 02:00N 48°41' W 122°42'5 9.6
2017-May-24 01:30N 48°38' W 122°36'2 3.3
2017-May-24 01:00N 48°37' W 122°34'2 3.3
2017-May-24 00:30N 48°37' W 122°36'4 8.3
2017-May-23 23:58N 48°34' W 122°40'511.5
2017-May-23 23:30N 48°29' W 122°44'612.8
2017-May-23 23:00N 48°23' W 122°49'713.7
2017-May-23 22:29N 48°19' W 122°58'611.5
2017-May-23 22:00N 48°16' W 123°05'2 3.5
2017-May-23 21:30N 48°15' W 123°06'3 6.0
2017-May-23 20:58N 48°14' W 123°02'3 6.5
2017-May-23 20:29N 48°13' W 122°57'4 7.8
2017-May-23 20:00N 48°12' W 122°52'17 8.6
2017-May-23 18:04N 47°60' W 122°36'110.2
2017-May-23 17:57N 47°59' W 122°35'410.2
2017-May-23 17:30N 47°56' W 122°30'510.2
2017-May-23 17:00N 47°51' W 122°28'510.0
2017-May-23 16:30N 47°46' W 122°26'5 9.9
2017-May-23 16:00N 47°41' W 122°27'5 9.0
2017-May-23 15:30N 47°37' W 122°23'1 1.1
2017-May-23 15:00N 47°38' W 122°23'0 0.0
2017-May-23 14:30N 47°38' W 122°23'0 0.0
2017-May-23 13:30N 47°38' W 122°23'3 6.5
2017-May-23 13:00N 47°35' W 122°21'0 0.1
2017-May-23 12:30N 47°35' W 122°21'1 1.4
2017-May-23 12:00N 47°36' W 122°21'1 2.4
2017-May-23 11:30N 47°36' W 122°22'1 2.5
2017-May-23 11:01N 47°36' W 122°21'1 1.3
2017-May-23 10:27N 47°35' W 122°21'0 0.0
2017-May-23 10:00N 47°35' W 122°21'0 0.0
2017-May-23 09:30N 47°35' W 122°21'1 1.6
2017-May-23 09:00N 47°36' W 122°21'0 0.0
2017-May-23 08:30N 47°36' W 122°21'1 2.6
2017-May-23 08:00N 47°36' W 122°22'1 2.2
2017-May-23 07:30N 47°37' W 122°23'1 1.7
2017-May-23 07:00N 47°38' W 122°23'0 0.0
2017-May-23 06:29N 47°38' W 122°23'0 0.0
2017-May-23 06:00N 47°38' W 122°23'0 0.0
2017-May-23 05:30N 47°38' W 122°23'0 0.0
2017-May-23 05:00N 47°38' W 122°23'0 0.0
2017-May-23 04:30N 47°38' W 122°23'0 0.0
2017-May-23 03:59N 47°38' W 122°23'0 0.0
2017-May-23 03:30N 47°38' W 122°23'0 0.0
2017-May-23 03:01N 47°38' W 122°23'3 5.6
2017-May-23 02:31N 47°35' W 122°21'0 0.6
2017-May-23 02:01N 47°35' W 122°21'1 1.6
2017-May-23 01:31N 47°35' W 122°22'0 0.0
2017-May-23 01:01N 47°35' W 122°22'1 2.4
2017-May-23 00:30N 47°36' W 122°21'3 5.1
2017-May-23 00:01N 47°38' W 122°23'0 0.0
2017-May-22 23:30N 47°38' W 122°23'0 0.0
2017-May-22 23:00N 47°38' W 122°23'0 0.0
2017-May-22 22:30N 47°38' W 122°23'0 0.0
2017-May-22 22:00N 47°38' W 122°23'0 0.0
2017-May-22 21:30N 47°38' W 122°23'0 0.0
2017-May-22 21:00N 47°38' W 122°23'0 0.0
2017-May-22 20:29N 47°38' W 122°23'0 0.0
2017-May-22 19:59N 47°38' W 122°23'0 0.0
2017-May-22 19:30N 47°38' W 122°23'0 0.0
2017-May-22 18:59N 47°38' W 122°23'0 0.0
2017-May-22 18:30N 47°38' W 122°23'0 0.0
2017-May-22 18:00N 47°38' W 122°23'0 0.0
2017-May-22 17:29N 47°38' W 122°23'0 0.0
2017-May-22 16:59N 47°38' W 122°23'0 0.0
2017-May-22 16:30N 47°38' W 122°23'0 0.0
2017-May-22 16:00N 47°38' W 122°23'0 0.0
2017-May-22 15:30N 47°38' W 122°23'0 0.0
2017-May-22 15:00N 47°38' W 122°23'0 0.0
2017-May-22 13:59N 47°38' W 122°23'0 0.0
2017-May-22 13:29N 47°38' W 122°23'0 0.0
2017-May-22 13:00N 47°38' W 122°23'0 0.0
2017-May-22 12:30N 47°38' W 122°23'0 0.0
2017-May-22 12:00N 47°38' W 122°23'0 0.0
2017-May-22 11:29N 47°38' W 122°23'0 0.0
2017-May-22 11:00N 47°38' W 122°23'0 0.0
2017-May-22 10:30N 47°38' W 122°23'0 0.0
2017-May-22 09:59N 47°38' W 122°23'0 0.0
2017-May-22 09:29N 47°38' W 122°23'0 0.0
2017-May-22 09:00N 47°38' W 122°23'0 0.0
2017-May-22 08:27N 47°38' W 122°23'0 0.0
2017-May-22 07:59N 47°38' W 122°23'0 0.0
2017-May-22 07:29N 47°38' W 122°23'0 0.0
2017-May-22 07:00N 47°38' W 122°23'0 0.0
2017-May-22 06:29N 47°38' W 122°23'0 0.0
2017-May-22 05:59N 47°38' W 122°23'0 0.0
2017-May-22 05:30N 47°38' W 122°23'0 0.0
2017-May-22 04:59N 47°38' W 122°23'0 0.0
2017-May-22 04:30N 47°38' W 122°23'0 0.0
2017-May-22 03:59N 47°38' W 122°23'0 0.0
2017-May-22 03:30N 47°38' W 122°23'0 0.0
2017-May-22 03:00N 47°38' W 122°23'0 0.0
2017-May-22 02:30N 47°38' W 122°23'0 0.0
2017-May-22 01:59N 47°38' W 122°23'0 0.0
2017-May-22 01:30N 47°38' W 122°23'0 0.0
2017-May-22 00:59N 47°38' W 122°23'0 0.0
2017-May-22 00:29N 47°38' W 122°23'0 0.0
2017-May-22 00:00N 47°38' W 122°23'0 0.0
2017-May-21 23:30N 47°38' W 122°23'0 0.0
2017-May-21 23:00N 47°38' W 122°23'0 0.0
2017-May-21 22:30N 47°38' W 122°23'0 0.0
2017-May-21 21:59N 47°38' W 122°23'0 0.0
2017-May-21 21:30N 47°38' W 122°23'0 0.0
2017-May-21 21:00N 47°38' W 122°23'0 0.0
2017-May-21 20:29N 47°38' W 122°23'0 0.0
2017-May-21 19:59N 47°38' W 122°23'0 0.0
2017-May-21 19:30N 47°38' W 122°23'0 0.0
2017-May-21 18:59N 47°38' W 122°23'0 0.0
2017-May-21 18:30N 47°38' W 122°23'0 0.0
2017-May-21 17:59N 47°38' W 122°23'0 0.0
2017-May-21 17:29N 47°38' W 122°23'0 0.0
2017-May-21 16:59N 47°38' W 122°23'0 0.0
2017-May-21 16:29N 47°38' W 122°23'0 0.0
2017-May-21 15:59N 47°38' W 122°23'0 0.0
2017-May-21 15:30N 47°38' W 122°23'0 0.0
2017-May-21 15:00N 47°38' W 122°23'0 0.0
2017-May-21 14:29N 47°38' W 122°23'0 0.0
2017-May-21 13:30N 47°38' W 122°23'1 1.3
2017-May-21 13:00N 47°37' W 122°22'3 5.2
2017-May-21 12:31N 47°35' W 122°21'0 0.4
2017-May-21 12:00N 47°35' W 122°21'2 3.7
2017-May-21 11:30N 47°37' W 122°22'1 2.3
2017-May-21 11:00N 47°38' W 122°23'0 0.0
2017-May-21 10:29N 47°38' W 122°23'0 0.0
2017-May-21 09:59N 47°38' W 122°23'0 0.0
2017-May-21 09:29N 47°38' W 122°23'0 0.0
2017-May-21 08:59N 47°38' W 122°23'0 0.0
2017-May-21 08:29N 47°38' W 122°23'0 0.0
2017-May-21 07:59N 47°38' W 122°23'0 0.0
2017-May-21 07:29N 47°38' W 122°23'0 0.0
2017-May-21 06:59N 47°38' W 122°23'0 0.0
2017-May-21 06:26N 47°38' W 122°23'0 0.0
2017-May-21 05:59N 47°38' W 122°23'0 0.0
2017-May-21 05:29N 47°38' W 122°23'0 0.0
2017-May-21 04:59N 47°38' W 122°23'0 0.0
2017-May-21 04:29N 47°38' W 122°23'0 0.0
2017-May-21 03:56N 47°38' W 122°23'0 0.0
2017-May-21 03:29N 47°38' W 122°23'0 0.0
2017-May-21 03:01N 47°38' W 122°23'3 5.0
2017-May-21 02:30N 47°36' W 122°21'0 0.5
2017-May-21 02:01N 47°36' W 122°21'0 0.0
2017-May-21 01:31N 47°36' W 122°21'3 4.9
2017-May-21 00:58N 47°38' W 122°23'0 0.0
2017-May-21 00:28N 47°38' W 122°23'0 0.0
2017-May-20 23:58N 47°38' W 122°23'0 0.0
2017-May-20 23:28N 47°38' W 122°23'0 0.0
2017-May-20 22:58N 47°38' W 122°23'0 0.0
2017-May-20 22:28N 47°38' W 122°23'0 0.0
2017-May-20 21:58N 47°38' W 122°23'0 0.0
2017-May-20 21:28N 47°38' W 122°23'0 0.0
2017-May-20 20:58N 47°38' W 122°23'0 0.0
2017-May-20 20:28N 47°38' W 122°23'0 0.0
2017-May-20 19:58N 47°38' W 122°23'0 0.0
2017-May-20 19:28N 47°38' W 122°23'0 0.0
2017-May-20 18:58N 47°38' W 122°23'0 0.0
2017-May-20 18:28N 47°38' W 122°23'0 0.0
2017-May-20 17:58N 47°38' W 122°23'0 0.0
2017-May-20 17:28N 47°38' W 122°23'0 0.0
2017-May-20 16:58N 47°38' W 122°23'0 0.0
2017-May-20 16:28N 47°38' W 122°23'0 0.0
2017-May-20 15:55N 47°38' W 122°23'0 0.2
2017-May-20 15:31N 47°38' W 122°23'5 9.2
2017-May-20 15:01N 47°34' W 122°26'510.4
2017-May-20 14:31N 47°29' W 122°24'9 8.8
2017-May-20 13:31N 47°20' W 122°26'3 6.6
2017-May-20 13:00N 47°17' W 122°25'0 0.0
2017-May-20 11:35N 47°17' W 122°25'111.7
2017-May-20 11:30N 47°17' W 122°26'510.5
2017-May-20 11:00N 47°22' W 122°23'612.1
2017-May-20 10:31N 47°28' W 122°24'612.5
2017-May-20 10:01N 47°34' W 122°25'4 7.9
2017-May-20 09:31N 47°37' W 122°22'0 0.0
2017-May-20 09:00N 47°37' W 122°22'1 1.7
2017-May-20 08:31N 47°37' W 122°23'1 1.6
2017-May-20 08:01N 47°37' W 122°22'0 0.3
2017-May-20 07:31N 47°37' W 122°22'1 1.3
2017-May-20 07:01N 47°38' W 122°23'0 0.0
2017-May-20 06:30N 47°38' W 122°23'0 0.0
2017-May-20 06:00N 47°38' W 122°23'0 0.0
2017-May-20 05:30N 47°38' W 122°23'0 0.0
2017-May-20 05:00N 47°38' W 122°23'0 0.0
2017-May-20 04:30N 47°38' W 122°23'0 0.0
2017-May-20 04:00N 47°38' W 122°23'0 0.0
2017-May-20 03:30N 47°38' W 122°23'3 5.4
2017-May-20 03:00N 47°35' W 122°22'1 1.0
2017-May-20 02:31N 47°35' W 122°22'0 0.3
2017-May-20 02:00N 47°35' W 122°22'0 0.0
2017-May-20 01:30N 47°35' W 122°22'0 0.3
2017-May-20 01:00N 47°35' W 122°22'0 0.3
2017-May-20 00:30N 47°35' W 122°22'0 0.0
2017-May-20 00:00N 47°35' W 122°22'0 0.0
2017-May-19 23:30N 47°35' W 122°22'0 0.0
2017-May-19 23:01N 47°35' W 122°22'0 0.0
2017-May-19 22:31N 47°35' W 122°22'0 0.0
2017-May-19 22:01N 47°35' W 122°22'0 0.0
2017-May-19 21:31N 47°35' W 122°22'1 1.6
2017-May-19 21:01N 47°35' W 122°21'0 1.0
2017-May-19 20:31N 47°36' W 122°21'2 3.3
2017-May-19 20:00N 47°37' W 122°22'1 1.8
2017-May-19 19:31N 47°38' W 122°23'0 0.5
2017-May-19 18:59N 47°38' W 122°23'0 0.0
2017-May-19 18:29N 47°38' W 122°23'0 0.0
2017-May-19 17:59N 47°38' W 122°23'0 0.0
2017-May-19 17:29N 47°38' W 122°23'0 0.0
2017-May-19 16:59N 47°38' W 122°23'0 0.0
2017-May-19 16:29N 47°38' W 122°23'0 0.0
2017-May-19 15:59N 47°38' W 122°23'0 0.0
2017-May-19 15:29N 47°38' W 122°23'0 0.0
2017-May-19 14:59N 47°38' W 122°23'0 0.0
2017-May-19 14:00N 47°38' W 122°23'0 0.0
2017-May-19 13:31N 47°38' W 122°23'0 0.0
2017-May-19 13:01N 47°38' W 122°23'1 1.3
2017-May-19 12:31N 47°37' W 122°22'3 5.4
2017-May-19 12:01N 47°35' W 122°21'0 0.3
2017-May-19 11:31N 47°35' W 122°21'0 0.9
2017-May-19 11:01N 47°35' W 122°21'3 6.1
2017-May-19 10:31N 47°38' W 122°23'0 0.0
2017-May-19 10:00N 47°38' W 122°23'0 0.0
2017-May-19 09:30N 47°38' W 122°23'0 0.0
2017-May-19 09:00N 47°38' W 122°23'0 0.0
2017-May-19 08:30N 47°38' W 122°23'0 0.0
2017-May-19 08:00N 47°38' W 122°23'0 0.0
2017-May-19 07:30N 47°38' W 122°23'0 0.0
2017-May-19 07:00N 47°38' W 122°23'0 0.0
2017-May-19 06:30N 47°38' W 122°23'0 0.0
2017-May-19 06:00N 47°38' W 122°23'0 0.0
2017-May-19 05:30N 47°38' W 122°23'0 0.0
2017-May-19 05:00N 47°38' W 122°23'0 0.0
2017-May-19 04:30N 47°38' W 122°23'0 0.0
2017-May-19 04:00N 47°38' W 122°23'0 0.0
2017-May-19 03:30N 47°38' W 122°23'0 0.0
2017-May-19 03:00N 47°38' W 122°23'0 0.0
2017-May-19 02:30N 47°38' W 122°23'0 0.0
2017-May-19 02:00N 47°38' W 122°23'0 0.0
2017-May-19 01:30N 47°38' W 122°23'3 6.2
2017-May-19 01:00N 47°35' W 122°21'0 0.5
2017-May-19 00:31N 47°35' W 122°21'3 6.2
2017-May-18 23:58N 47°38' W 122°23'0 0.0
2017-May-18 23:28N 47°38' W 122°23'0 0.0
2017-May-18 22:58N 47°38' W 122°23'0 0.0
2017-May-18 22:28N 47°38' W 122°23'0 0.0
2017-May-18 21:58N 47°38' W 122°23'0 0.0
2017-May-18 21:28N 47°38' W 122°23'0 0.0
2017-May-18 20:58N 47°38' W 122°23'0 0.0
2017-May-18 20:28N 47°38' W 122°23'0 0.0
2017-May-18 19:58N 47°38' W 122°23'0 0.0
2017-May-18 19:28N 47°38' W 122°23'3 6.1
2017-May-18 19:00N 47°36' W 122°21'0 0.1
2017-May-18 18:30N 47°36' W 122°21'1 2.3
2017-May-18 18:00N 47°36' W 122°22'3 5.4
2017-May-18 17:30N 47°37' W 122°26'4 8.0
2017-May-18 17:00N 47°41' W 122°28'5 9.5
2017-May-18 16:30N 47°46' W 122°27'5 9.6
2017-May-18 16:01N 47°50' W 122°28'5 9.6
2017-May-18 15:30N 47°55' W 122°30'5 9.3
2017-May-18 14:59N 47°58' W 122°36'11 9.0
2017-May-18 13:48N 48°08' W 122°42'511.4
2017-May-18 13:20N 48°11' W 122°49'412.6
2017-May-18 13:00N 48°12' W 122°55'510.2
2017-May-18 12:30N 48°12' W 123°03'510.1
2017-May-18 12:00N 48°12' W 123°10'5 9.1
2017-May-18 11:30N 48°10' W 123°16'4 8.7
2017-May-18 11:00N 48°08' W 123°22'1 2.6
2017-May-18 10:31N 48°08' W 123°24'0 0.3
2017-May-18 10:00N 48°08' W 123°24'0 0.1
2017-May-18 09:30N 48°08' W 123°24'0 0.2
2017-May-18 09:00N 48°08' W 123°24'0 0.0
2017-May-18 08:30N 48°08' W 123°24'0 0.9
2017-May-18 08:00N 48°08' W 123°24'611.4
2017-May-18 07:31N 48°10' W 123°16'610.8
2017-May-18 07:00N 48°12' W 123°08'510.4
2017-May-18 06:30N 48°12' W 123°01'611.1
2017-May-18 06:01N 48°12' W 122°52'14 9.3
2017-May-18 04:27N 48°01' W 122°37'4 9.7
2017-May-18 04:00N 47°58' W 122°34'510.1
2017-May-18 03:31N 47°54' W 122°29'612.6
2017-May-18 03:01N 47°48' W 122°26'612.6
2017-May-18 02:31N 47°42' W 122°27'611.5
2017-May-18 02:01N 47°37' W 122°23'2 4.3
2017-May-18 01:31N 47°35' W 122°21'0 0.7
2017-May-18 01:01N 47°35' W 122°21'0 0.1
2017-May-18 00:31N 47°35' W 122°21'1 2.1
2017-May-18 00:01N 47°36' W 122°21'0 0.5
2017-May-17 23:31N 47°36' W 122°21'0 0.1
2017-May-17 23:00N 47°36' W 122°21'2 4.9
2017-May-17 22:31N 47°38' W 122°23'0 0.3
2017-May-17 22:00N 47°38' W 122°23'0 0.0
2017-May-17 21:31N 47°38' W 122°23'0 0.0
2017-May-17 21:01N 47°38' W 122°23'0 0.0
2017-May-17 20:31N 47°38' W 122°23'0 0.0
2017-May-17 20:01N 47°38' W 122°23'1 1.4
2017-May-17 19:30N 47°37' W 122°23'0 0.2
2017-May-17 19:01N 47°37' W 122°23'1 1.5
2017-May-17 18:30N 47°38' W 122°23'0 0.0
2017-May-17 18:00N 47°38' W 122°23'0 0.0
2017-May-17 17:30N 47°38' W 122°23'0 0.0
2017-May-17 17:00N 47°38' W 122°23'0 0.0
2017-May-17 16:30N 47°38' W 122°23'0 0.0
2017-May-17 16:00N 47°38' W 122°23'0 0.0
2017-May-17 15:30N 47°38' W 122°23'0 0.0
2017-May-17 15:00N 47°38' W 122°23'2 2.2
2017-May-17 14:01N 47°36' W 122°21'1 2.2
2017-May-17 13:31N 47°35' W 122°21'1 2.9
2017-May-17 13:00N 47°36' W 122°21'1 2.6
2017-May-17 12:30N 47°37' W 122°22'0 0.2
2017-May-17 12:01N 47°37' W 122°22'2 4.9
2017-May-17 11:30N 47°35' W 122°21'0 0.3
2017-May-17 11:01N 47°35' W 122°21'1 1.8
2017-May-17 10:30N 47°36' W 122°21'2 3.2
2017-May-17 10:01N 47°37' W 122°23'1 1.5
2017-May-17 09:31N 47°37' W 122°22'0 0.2
2017-May-17 09:00N 47°37' W 122°22'0 0.1
2017-May-17 08:31N 47°37' W 122°22'1 2.1
2017-May-17 08:01N 47°36' W 122°22'2 3.6
2017-May-17 07:30N 47°38' W 122°24'511.1
2017-May-17 07:01N 47°43' W 122°27'612.2
2017-May-17 06:31N 47°49' W 122°28'611.7
2017-May-17 06:00N 47°54' W 122°30'1812.0
2017-May-17 04:29N 48°10' W 122°45'613.0
2017-May-17 04:00N 48°11' W 122°54'612.8
2017-May-17 03:30N 48°12' W 123°04'713.9
2017-May-17 03:00N 48°10' W 123°14'613.1
2017-May-17 02:30N 48°08' W 123°23'2 4.2
2017-May-17 02:00N 48°08' W 123°26'0 0.1
2017-May-17 01:30N 48°08' W 123°26'0 0.1
2017-May-17 01:00N 48°08' W 123°27'0 0.8
2017-May-17 00:30N 48°08' W 123°26'1 2.8
2017-May-17 00:00N 48°08' W 123°24'4 8.4
2017-May-16 23:30N 48°11' W 123°19'5 9.3
2017-May-16 23:00N 48°14' W 123°14'5 9.6
2017-May-16 22:30N 48°16' W 123°08'5 9.3
2017-May-16 21:59N 48°19' W 123°02'5 9.6
2017-May-16 21:25N 48°22' W 122°55'410.2
2017-May-16 21:00N 48°24' W 122°49'511.0
2017-May-16 20:30N 48°28' W 122°44'510.8
2017-May-16 20:00N 48°31' W 122°38'1 1.2
2017-May-16 19:28N 48°31' W 122°37'0 0.0
2017-May-16 18:58N 48°31' W 122°37'0 0.0
2017-May-16 18:22N 48°31' W 122°37'0 0.0
2017-May-16 17:58N 48°31' W 122°37'0 0.0
2017-May-16 17:28N 48°31' W 122°37'0 0.0
2017-May-16 16:58N 48°31' W 122°37'0 0.0
2017-May-16 16:28N 48°31' W 122°37'0 0.0
2017-May-16 10:21N 48°31' W 122°37'1 1.0
2017-May-16 08:58N 48°31' W 122°35'1 0.3
2017-May-16 04:12N 48°31' W 122°37'0 0.8
2017-May-16 04:01N 48°31' W 122°36'0 0.0
2017-May-16 03:30N 48°31' W 122°36'0 0.0
2017-May-16 03:00N 48°31' W 122°36'0 0.1
2017-May-16 01:04N 48°31' W 122°36'110.0
2017-May-16 01:00N 48°31' W 122°37'1 0.3
2017-May-15 21:30N 48°31' W 122°36'2 3.5
2017-May-15 21:00N 48°31' W 122°38'1 1.7
2017-May-15 20:30N 48°31' W 122°39'2 4.2
2017-May-15 20:00N 48°31' W 122°36'1 0.2
2017-May-15 17:23N 48°31' W 122°36'0 0.2
2017-May-15 15:04N 48°31' W 122°36'  

Dump ship's entire track history